createdAt,value
2018-08-17T00:01:50.944Z,20.83
2018-08-17T00:04:55.209Z,20.43
2018-08-17T00:07:59.433Z,27.23
2018-08-17T00:11:04.509Z,26.37
2018-08-17T00:14:09.279Z,24.17
2018-08-17T00:17:13.566Z,22.67
2018-08-17T00:20:17.839Z,23.47
2018-08-17T00:23:22.121Z,22.57
2018-08-17T00:26:26.385Z,22.83
2018-08-17T00:29:30.632Z,22.70
2018-08-17T00:32:35.112Z,21.80
2018-08-17T00:35:39.320Z,19.93
2018-08-17T00:38:43.541Z,16.73
2018-08-17T00:41:47.846Z,19.27
2018-08-17T00:44:52.097Z,18.33
2018-08-17T00:47:56.334Z,15.63
2018-08-17T00:51:00.601Z,17.17
2018-08-17T00:54:04.849Z,21.87
2018-08-17T00:57:09.092Z,18.40
2018-08-17T01:00:13.393Z,17.10
2018-08-17T01:03:17.608Z,14.40
2018-08-17T01:06:21.847Z,13.70
2018-08-17T01:09:26.089Z,15.37
2018-08-17T01:12:30.324Z,14.23
2018-08-17T01:15:34.549Z,19.83
2018-08-17T01:18:38.833Z,15.07
2018-08-17T01:21:43.064Z,15.20
2018-08-17T01:24:47.309Z,17.30
2018-08-17T01:27:51.532Z,15.07
2018-08-17T01:30:55.773Z,14.90
2018-08-17T01:34:00.034Z,15.73
2018-08-17T01:37:04.292Z,17.27
2018-08-17T01:40:08.556Z,16.90
2018-08-17T01:43:12.793Z,18.33
2018-08-17T01:46:17.024Z,17.20
2018-08-17T01:49:21.296Z,15.73
2018-08-17T01:52:25.565Z,19.33
2018-08-17T01:55:29.780Z,20.87
2018-08-17T01:58:34.002Z,16.63
2018-08-17T02:01:38.226Z,17.10
2018-08-17T02:04:42.469Z,15.37
2018-08-17T02:07:46.704Z,18.97
2018-08-17T02:10:50.952Z,16.10
2018-08-17T02:13:55.208Z,14.40
2018-08-17T02:16:59.429Z,13.53
2018-08-17T02:20:03.715Z,15.33
2018-08-17T02:23:08.127Z,16.83
2018-08-17T02:26:12.368Z,12.97
2018-08-17T02:29:16.628Z,13.80
2018-08-17T02:32:20.937Z,16.00
2018-08-17T02:35:25.182Z,11.37
2018-08-17T02:38:29.468Z,15.80
2018-08-17T02:41:33.692Z,11.83
2018-08-17T02:44:37.945Z,12.10
2018-08-17T02:47:42.157Z,12.63
2018-08-17T02:50:46.403Z,10.40
2018-08-17T02:53:50.652Z,9.47
2018-08-17T02:56:54.905Z,9.87
2018-08-17T02:59:59.185Z,9.30
2018-08-17T03:03:03.400Z,9.73
2018-08-17T03:06:08.724Z,9.93
2018-08-17T03:09:13.011Z,10.00
2018-08-17T03:12:17.258Z,13.60
2018-08-17T03:15:21.527Z,10.30
2018-08-17T03:18:25.779Z,10.60
2018-08-17T03:21:30.047Z,11.70
2018-08-17T03:24:34.367Z,11.53
2018-08-17T03:27:38.656Z,13.67
2018-08-17T03:30:42.884Z,11.97
2018-08-17T03:33:47.120Z,11.00
2018-08-17T03:36:52.537Z,11.17
2018-08-17T03:39:57.061Z,10.33
2018-08-17T03:43:01.330Z,11.40
2018-08-17T03:46:05.549Z,11.83
2018-08-17T03:49:09.819Z,11.33
2018-08-17T03:52:14.087Z,12.73
2018-08-17T03:55:18.339Z,16.93
2018-08-17T03:58:22.596Z,15.10
2018-08-17T04:01:30.430Z,16.70
2018-08-17T04:04:40.229Z,16.70
2018-08-17T04:07:49.315Z,17.77
2018-08-17T04:10:55.817Z,17.90
2018-08-17T04:14:09.492Z,15.57
2018-08-17T04:17:15.755Z,20.13
2018-08-17T04:20:23.656Z,18.13
2018-08-17T04:23:32.441Z,16.77
2018-08-17T04:26:42.981Z,15.37
2018-08-17T04:29:47.285Z,18.60
2018-08-17T04:32:51.534Z,17.53
2018-08-17T04:35:55.772Z,17.93
2018-08-17T04:39:00.038Z,19.83
2018-08-17T04:42:04.288Z,17.43
2018-08-17T04:45:09.308Z,18.70
2018-08-17T04:48:13.570Z,17.10
2018-08-17T04:51:17.839Z,17.40
2018-08-17T04:54:22.098Z,16.30
2018-08-17T04:57:26.365Z,15.90
2018-08-17T05:00:30.604Z,17.97
2018-08-17T05:03:34.893Z,17.90
2018-08-17T05:06:39.143Z,18.00
2018-08-17T05:09:43.396Z,16.73
2018-08-17T05:12:47.640Z,16.67
2018-08-17T05:15:51.880Z,16.00
2018-08-17T05:18:56.146Z,14.97
2018-08-17T05:22:00.484Z,16.57
2018-08-17T05:25:06.833Z,11.63
2018-08-17T05:28:13.897Z,14.37
2018-08-17T05:34:34.009Z,10.63
2018-08-17T05:37:45.726Z,11.57
2018-08-17T05:41:00.098Z,9.27
2018-08-17T05:44:08.360Z,12.90
2018-08-17T05:47:15.333Z,10.07
2018-08-17T05:50:21.593Z,11.53
2018-08-17T05:53:35.754Z,14.40
2018-08-17T05:56:43.403Z,11.87
2018-08-17T06:00:05.018Z,10.03
2018-08-17T06:03:15.098Z,13.37
2018-08-17T06:06:19.521Z,9.57
2018-08-17T06:09:32.146Z,9.53
2018-08-17T06:12:39.497Z,11.13
2018-08-17T06:15:45.558Z,9.00
2018-08-17T06:18:52.198Z,8.57
2018-08-17T06:21:58.314Z,9.97
2018-08-17T06:25:04.877Z,8.07
2018-08-17T06:28:14.163Z,9.77
2018-08-17T06:31:21.908Z,7.13
2018-08-17T06:37:45.493Z,9.83
2018-08-17T06:40:52.449Z,14.90
2018-08-17T06:44:11.797Z,8.73
2018-08-17T06:47:19.670Z,9.37
2018-08-17T06:50:25.293Z,9.70
2018-08-17T06:53:30.547Z,7.43
2018-08-17T06:56:34.794Z,6.77
2018-08-17T06:59:39.094Z,8.40
2018-08-17T07:02:44.579Z,10.13
2018-08-17T07:05:48.727Z,11.30
2018-08-17T07:08:52.995Z,15.07
2018-08-17T07:11:58.065Z,9.70
2018-08-17T07:15:02.362Z,9.77
2018-08-17T07:18:06.725Z,18.73
2018-08-17T07:21:11.019Z,15.63
2018-08-17T07:24:17.471Z,13.30
2018-08-17T07:27:22.638Z,9.10
2018-08-17T07:30:27.813Z,16.57
2018-08-17T07:33:32.814Z,19.70
2018-08-17T07:36:37.808Z,12.63
2018-08-17T07:39:42.662Z,14.10
2018-08-17T07:42:47.682Z,16.50
2018-08-17T07:45:52.343Z,14.43
2018-08-17T07:48:57.136Z,8.03
2018-08-17T07:52:01.994Z,8.57
2018-08-17T07:55:06.250Z,10.73
2018-08-17T07:58:10.525Z,7.30
2018-08-17T08:01:14.809Z,9.87
2018-08-17T08:04:19.066Z,10.03
2018-08-17T08:07:23.342Z,10.00
2018-08-17T08:10:27.660Z,6.53
2018-08-17T08:13:31.956Z,11.17
2018-08-17T08:16:36.357Z,10.33
2018-08-17T08:19:40.638Z,9.37
2018-08-17T08:22:44.924Z,12.67
2018-08-17T08:25:49.184Z,10.07
2018-08-17T08:28:53.449Z,12.30
2018-08-17T08:31:57.716Z,9.37
2018-08-17T08:35:02.082Z,7.67
2018-08-17T08:38:06.473Z,11.63
2018-08-17T08:41:10.702Z,10.70
2018-08-17T08:44:15.064Z,8.27
2018-08-17T08:47:19.293Z,7.93
2018-08-17T08:50:23.636Z,11.30
2018-08-17T08:53:28.272Z,8.00
2018-08-17T08:56:32.660Z,9.77
2018-08-17T08:59:36.939Z,9.50
2018-08-17T09:02:41.267Z,12.53
2018-08-17T09:05:45.561Z,6.27
2018-08-17T09:08:49.840Z,9.17
2018-08-17T09:11:54.158Z,10.50
2018-08-17T09:14:58.459Z,11.40
2018-08-17T09:18:03.024Z,11.20
2018-08-17T09:21:07.606Z,8.73
2018-08-17T09:24:11.959Z,8.13
2018-08-17T09:27:16.329Z,9.27
2018-08-17T09:30:20.649Z,11.53
2018-08-17T09:33:24.963Z,10.67
2018-08-17T09:36:29.281Z,11.40
2018-08-17T09:39:33.611Z,6.33
2018-08-17T09:42:38.010Z,8.97
2018-08-17T09:45:42.434Z,6.07
2018-08-17T09:48:46.730Z,9.53
2018-08-17T09:51:51.010Z,12.47
2018-08-17T09:54:55.318Z,9.30
2018-08-17T09:57:59.750Z,8.20
2018-08-17T10:01:09.375Z,12.40
2018-08-17T10:04:21.618Z,11.43
2018-08-17T10:07:31.315Z,9.27
2018-08-17T10:10:35.659Z,11.20
2018-08-17T10:13:40.393Z,11.27
2018-08-17T10:16:46.041Z,12.93
2018-08-17T10:19:50.422Z,8.90
2018-08-17T10:22:54.887Z,8.97
2018-08-17T10:25:59.414Z,7.70
2018-08-17T10:29:03.688Z,8.47
2018-08-17T10:32:08.933Z,6.43
2018-08-17T10:35:21.125Z,7.43
2018-08-17T10:38:26.545Z,8.23
2018-08-17T10:41:30.805Z,7.57
2018-08-17T10:44:37.081Z,9.70
2018-08-17T10:47:41.614Z,7.83
2018-08-17T10:50:48.786Z,10.37
2018-08-17T10:53:53.505Z,8.10
2018-08-17T10:56:58.314Z,7.90
2018-08-17T11:00:02.780Z,4.23
2018-08-17T11:03:07.094Z,6.57
2018-08-17T11:06:11.414Z,6.50
2018-08-17T11:09:15.814Z,5.00
2018-08-17T11:12:20.077Z,4.20
2018-08-17T11:15:24.774Z,5.57
2018-08-17T11:18:29.029Z,6.57
2018-08-17T11:21:33.284Z,7.40
2018-08-17T11:24:38.144Z,4.63
2018-08-17T11:27:42.386Z,4.53
2018-08-17T11:30:46.654Z,6.27
2018-08-17T11:33:50.909Z,6.93
2018-08-17T11:36:55.181Z,3.37
2018-08-17T11:40:03.075Z,6.07
2018-08-17T11:43:07.369Z,8.33
2018-08-17T11:46:11.637Z,4.27
2018-08-17T11:49:15.883Z,3.90
2018-08-17T11:52:20.153Z,6.03
2018-08-17T11:55:25.738Z,5.07
2018-08-17T11:58:29.969Z,6.10
2018-08-17T12:01:35.362Z,5.67
2018-08-17T12:04:39.673Z,5.97
2018-08-17T12:07:44.712Z,6.50
2018-08-17T12:10:54.405Z,4.73
2018-08-17T12:13:58.695Z,5.77
2018-08-17T12:17:02.952Z,7.20
2018-08-17T12:20:07.304Z,6.43
2018-08-17T12:23:11.614Z,5.63
2018-08-17T12:26:15.869Z,6.97
2018-08-17T12:29:20.142Z,9.50
2018-08-17T12:32:24.789Z,9.70
2018-08-17T12:35:29.054Z,6.30
2018-08-17T12:38:33.336Z,8.13
2018-08-17T12:41:37.609Z,7.37
2018-08-17T12:44:41.906Z,8.40
2018-08-17T12:47:46.162Z,9.73
2018-08-17T12:50:50.470Z,9.37
2018-08-17T12:53:54.745Z,6.30
2018-08-17T12:56:59.596Z,10.10
2018-08-17T13:00:03.934Z,5.57
2018-08-17T13:03:08.421Z,9.17
2018-08-17T13:06:12.696Z,6.43
2018-08-17T13:09:16.964Z,7.73
2018-08-17T13:12:21.742Z,8.27
2018-08-17T13:15:26.537Z,7.07
2018-08-17T13:18:33.161Z,7.00
2018-08-17T13:21:38.600Z,6.43
2018-08-17T13:24:43.508Z,6.50
2018-08-17T13:27:48.673Z,7.73
2018-08-17T13:30:54.102Z,5.43
2018-08-17T13:33:58.890Z,6.07
2018-08-17T13:37:03.627Z,7.40
2018-08-17T13:40:09.882Z,9.17
2018-08-17T13:43:14.938Z,9.53
2018-08-17T13:46:24.149Z,7.37
2018-08-17T13:49:28.597Z,7.90
2018-08-17T13:52:33.442Z,7.00
2018-08-17T13:55:38.246Z,6.07
2018-08-17T13:58:43.080Z,6.30
2018-08-17T14:01:47.986Z,6.10
2018-08-17T14:04:52.836Z,8.57
2018-08-17T14:07:58.838Z,7.47
2018-08-17T14:11:03.849Z,6.67
2018-08-17T14:14:08.894Z,3.63
2018-08-17T14:17:14.155Z,2.30
2018-08-17T14:20:19.312Z,7.27
2018-08-17T14:23:23.804Z,8.27
2018-08-17T14:26:28.485Z,5.07
2018-08-17T14:29:34.271Z,5.37
2018-08-17T14:32:39.053Z,4.90
2018-08-17T14:35:44.654Z,5.50
2018-08-17T14:38:49.494Z,7.50
2018-08-17T14:41:57.772Z,6.87
2018-08-17T14:45:02.874Z,5.73
2018-08-17T14:48:08.297Z,6.20
2018-08-17T14:51:13.885Z,7.83
2018-08-17T14:54:19.838Z,9.47
2018-08-17T14:57:24.883Z,8.57
2018-08-17T15:00:29.796Z,6.33
2018-08-17T15:03:34.726Z,4.70
2018-08-17T15:06:39.629Z,4.63
2018-08-17T15:09:44.273Z,4.87
2018-08-17T15:12:49.616Z,5.80
2018-08-17T15:15:54.269Z,3.87
2018-08-17T15:18:59.048Z,4.20
2018-08-17T15:22:05.290Z,5.57
2018-08-17T15:25:10.047Z,6.27
2018-08-17T15:28:15.081Z,5.33
2018-08-17T15:31:20.822Z,4.70
2018-08-17T15:34:26.521Z,5.43
2018-08-17T15:37:30.933Z,8.60
2018-08-17T15:40:35.833Z,6.40
2018-08-17T15:43:40.699Z,8.07
2018-08-17T15:46:45.852Z,5.20
2018-08-17T15:50:07.564Z,6.50
2018-08-17T15:53:12.651Z,4.37
2018-08-17T15:56:17.703Z,6.43
2018-08-17T15:59:23.034Z,5.93
2018-08-17T16:02:28.010Z,5.77
2018-08-17T16:05:33.147Z,6.37
2018-08-17T16:08:38.582Z,8.83
2018-08-17T16:11:44.410Z,5.80
2018-08-17T16:14:49.409Z,7.23
2018-08-17T16:17:55.105Z,3.97
2018-08-17T16:21:00.490Z,9.13
2018-08-17T16:24:07.017Z,7.10
2018-08-17T16:27:12.478Z,6.47
2018-08-17T16:30:17.523Z,5.47
2018-08-17T16:33:23.598Z,7.37
2018-08-17T16:36:29.201Z,6.10
2018-08-17T16:39:39.998Z,5.90
2018-08-17T16:42:44.458Z,4.30
2018-08-17T16:45:48.773Z,5.60
2018-08-17T16:48:53.216Z,3.23
2018-08-17T16:51:57.492Z,4.80
2018-08-17T16:55:02.113Z,4.07
2018-08-17T16:58:06.623Z,3.60
2018-08-17T17:01:11.038Z,4.93
2018-08-17T17:04:15.555Z,4.07
2018-08-17T17:07:19.944Z,4.83
2018-08-17T17:10:32.806Z,3.93
2018-08-17T17:13:41.437Z,4.30
2018-08-17T17:16:47.949Z,4.30
2018-08-17T17:19:52.661Z,4.87
2018-08-17T17:22:56.981Z,6.77
2018-08-17T17:26:01.297Z,2.83
2018-08-17T17:29:05.666Z,2.87
2018-08-17T17:32:10.035Z,4.27
2018-08-17T17:35:14.347Z,4.20
2018-08-17T17:38:18.623Z,5.97
2018-08-17T17:41:22.969Z,6.47
2018-08-17T17:44:27.273Z,3.83
2018-08-17T17:47:31.633Z,6.70
2018-08-17T17:50:35.945Z,8.17
2018-08-17T17:53:46.157Z,7.30
2018-08-17T17:56:58.984Z,6.43
2018-08-17T18:00:03.205Z,5.10
2018-08-17T18:03:07.948Z,6.00
2018-08-17T18:06:12.257Z,3.63
2018-08-17T18:09:16.563Z,4.07
2018-08-17T18:12:20.836Z,7.13
2018-08-17T18:15:25.073Z,6.47
2018-08-17T18:18:29.364Z,4.67
2018-08-17T18:21:34.211Z,5.47
2018-08-17T18:24:38.450Z,4.37
2018-08-17T18:27:42.738Z,3.50
2018-08-17T18:30:47.044Z,6.77
2018-08-17T18:33:51.254Z,4.33
2018-08-17T18:36:55.537Z,7.07
2018-08-17T18:39:59.791Z,7.23
2018-08-17T18:43:04.037Z,6.50
2018-08-17T18:46:08.466Z,6.37
2018-08-17T18:49:12.702Z,8.30
2018-08-17T18:52:16.956Z,8.17
2018-08-17T18:55:21.198Z,6.07
2018-08-17T18:58:25.437Z,12.90
2018-08-17T19:01:29.723Z,6.27
2018-08-17T19:04:33.954Z,7.37
2018-08-17T19:07:38.806Z,5.50
2018-08-17T19:10:43.040Z,5.37
2018-08-17T19:13:47.292Z,4.13
2018-08-17T19:16:51.589Z,5.63
2018-08-17T19:19:55.788Z,7.10
2018-08-17T19:23:00.022Z,7.83
2018-08-17T19:26:04.296Z,5.90
2018-08-17T19:29:08.516Z,6.90
2018-08-17T19:32:12.795Z,5.97
2018-08-17T19:35:17.516Z,4.10
2018-08-17T19:38:21.747Z,5.10
2018-08-17T19:41:26.020Z,4.03
2018-08-17T19:44:30.640Z,10.30
2018-08-17T19:47:34.894Z,7.53
2018-08-17T19:50:39.141Z,4.73
2018-08-17T19:53:43.388Z,4.43
2018-08-17T19:56:47.631Z,4.67
2018-08-17T19:59:51.910Z,9.57
2018-08-17T20:02:56.185Z,8.73
2018-08-17T20:06:00.408Z,5.07
2018-08-17T20:09:06.353Z,6.53
2018-08-17T20:12:10.640Z,6.67
2018-08-17T20:15:14.899Z,8.37
2018-08-17T20:18:19.336Z,5.57
2018-08-17T20:21:24.964Z,6.57
2018-08-17T20:24:29.181Z,6.17
2018-08-17T20:27:33.422Z,6.07
2018-08-17T20:30:37.628Z,6.83
2018-08-17T20:33:41.974Z,7.63
2018-08-17T20:36:46.239Z,5.63
2018-08-17T20:39:50.462Z,6.97
2018-08-17T20:42:54.741Z,7.33
2018-08-17T20:45:59.006Z,11.10
2018-08-17T20:49:03.268Z,7.30
2018-08-17T20:52:07.518Z,6.23
2018-08-17T20:55:11.758Z,9.60
2018-08-17T20:58:16.109Z,6.50
2018-08-17T21:01:20.669Z,6.93
2018-08-17T21:04:25.291Z,5.07
2018-08-17T21:07:29.982Z,6.83
2018-08-17T21:10:34.511Z,8.50
2018-08-17T21:13:39.098Z,5.43
2018-08-17T21:16:43.648Z,7.43
2018-08-17T21:19:48.227Z,4.97
2018-08-17T21:22:52.789Z,6.07
2018-08-17T21:25:57.185Z,5.33
2018-08-17T21:29:02.856Z,7.17
2018-08-17T21:32:07.122Z,5.10
2018-08-17T21:35:11.438Z,7.03
2018-08-17T21:38:15.764Z,3.37
2018-08-17T21:41:20.164Z,4.17
2018-08-17T21:44:24.464Z,7.97
2018-08-17T21:47:28.804Z,4.60
2018-08-17T21:50:33.114Z,7.40
2018-08-17T21:53:37.419Z,5.50
2018-08-17T21:56:41.760Z,6.60
2018-08-17T21:59:51.969Z,4.20
2018-08-17T22:02:56.285Z,6.10
2018-08-17T22:06:00.606Z,4.23
2018-08-17T22:09:07.065Z,7.90
2018-08-17T22:12:12.187Z,7.30
2018-08-17T22:15:16.473Z,7.77
2018-08-17T22:18:20.824Z,8.30
2018-08-17T22:21:26.797Z,6.87
2018-08-17T22:24:31.852Z,10.87
2018-08-17T22:27:36.151Z,8.00
2018-08-17T22:30:40.451Z,7.83
2018-08-17T22:33:44.749Z,14.00
2018-08-17T22:36:49.066Z,10.57
2018-08-17T22:39:53.341Z,13.33
2018-08-17T22:42:57.573Z,21.70
2018-08-17T22:46:01.872Z,11.83
2018-08-17T22:49:06.210Z,12.60
2018-08-17T22:52:10.506Z,10.60
2018-08-17T22:55:14.761Z,7.33
2018-08-17T22:58:18.993Z,9.97
2018-08-17T23:01:23.221Z,8.57
2018-08-17T23:04:27.473Z,7.57
2018-08-17T23:07:31.700Z,11.60
2018-08-17T23:10:35.961Z,9.27
2018-08-17T23:13:40.193Z,9.60
2018-08-17T23:16:45.942Z,8.47
2018-08-17T23:19:50.189Z,11.10
2018-08-17T23:22:57.547Z,8.50
2018-08-17T23:26:01.806Z,6.93
2018-08-17T23:29:06.713Z,8.63
2018-08-17T23:32:11.021Z,9.70
2018-08-17T23:35:15.249Z,9.93
2018-08-17T23:38:19.483Z,10.23
2018-08-17T23:41:23.755Z,9.87
2018-08-17T23:44:28.000Z,9.63
2018-08-17T23:47:32.840Z,12.00
2018-08-17T23:50:37.086Z,16.77
2018-08-17T23:53:41.325Z,9.30
2018-08-17T23:56:45.597Z,8.77
2018-08-17T23:59:49.831Z,12.53
